Pagrindinis puslapis
METAR-TAF:

METAR-TAF

Oro uostai :

Bodensee

Friedrichshafen, Vokietija

platuma: 47-40N, ilguma: 009-31E, Aukštis: 416 m

Dabartinis oras

Ataskaita buvo paskelbta 31 minutes, ne 17:50 UTC
Vėjas 9 kt iš Šiaurės Rytų
Temperatūra 16°C
Drėgmė 45%
Slėgis 1019 hPa
Matomumas 10 km arba daugiau

METAR: EDNY 301750Z AUTO 04009KT 9999 // FEW057/// BKN092/// 16/04 Q1019

Laikas: 20:21 (18:21 UTC)

Prognozė

Ataskaita buvo paskelbta 1 valandą ir 21 minutes, ne 17:00 UTC
Prognozė galioja nuo 30 metu 18 UTC su 31 metu 18 UTC
Vėjas 8 kt iš Šiaurės/Šiaurės Rytų
Matomumas 10 km arba daugiau
Mažai debesys ne aukštis 4500 ft

TAF: EDNY 301700Z 3018/3118 03008KT 9999 FEW045

Orai ataskaitas ir orų prognozės (METAR, TAF).

turimą stotys yra geltonos ir raudonos taškus žemėlapyje.

Perkelti pele per norėdami pamatyti stoties vardą.

Tada spustelėkite, norėdami matyti oro stebėjimo ir prognozės.

Norėdami pakeisti žemėlapį: spustelėkite ant žalios mygtukų su juodo kryžiaus žemyn,; žalią mygtuką su brūkšneliu, jei norite nutolinti; arba žalių rodyklių gretimoms žemėlapius.


METAR-TAF: